sensor_id;sensor_type;location;lat;lon;timestamp;pressure;altitude;pressure_sealevel;temperature;humidity
9249;BME280;4660;41.768;26.198;2022-12-07T00:01:15;101114.44;;;7.05;100.00
9249;BME280;4660;41.768;26.198;2022-12-07T00:03:42;101106.28;;;7.20;100.00
9249;BME280;4660;41.768;26.198;2022-12-07T00:06:10;101129.81;;;7.27;100.00
9249;BME280;4660;41.768;26.198;2022-12-07T00:08:37;101135.09;;;7.29;100.00
9249;BME280;4660;41.768;26.198;2022-12-07T00:11:17;101127.50;;;7.10;100.00
9249;BME280;4660;41.768;26.198;2022-12-07T00:13:43;101115.75;;;6.74;100.00
9249;BME280;4660;41.768;26.198;2022-12-07T00:16:12;101129.75;;;6.90;100.00
9249;BME280;4660;41.768;26.198;2022-12-07T00:18:38;101123.34;;;6.93;100.00
9249;BME280;4660;41.768;26.198;2022-12-07T00:21:15;101118.31;;;6.63;100.00
9249;BME280;4660;41.768;26.198;2022-12-07T00:23:42;101115.22;;;6.82;100.00
9249;BME280;4660;41.768;26.198;2022-12-07T00:26:16;101105.78;;;6.76;100.00
9249;BME280;4660;41.768;26.198;2022-12-07T00:28:50;101111.47;;;6.84;100.00
9249;BME280;4660;41.768;26.198;2022-12-07T00:31:18;101119.47;;;7.10;100.00
9249;BME280;4660;41.768;26.198;2022-12-07T00:33:45;101122.88;;;7.25;100.00
9249;BME280;4660;41.768;26.198;2022-12-07T00:36:17;101120.94;;;7.27;100.00
9249;BME280;4660;41.768;26.198;2022-12-07T00:38:43;101129.81;;;7.27;100.00
9249;BME280;4660;41.768;26.198;2022-12-07T00:41:14;101119.22;;;7.26;100.00
9249;BME280;4660;41.768;26.198;2022-12-07T00:43:42;101120.09;;;7.26;100.00
9249;BME280;4660;41.768;26.198;2022-12-07T00:46:08;101122.03;;;7.24;100.00
9249;BME280;4660;41.768;26.198;2022-12-07T00:48:33;101111.78;;;6.93;100.00
9249;BME280;4660;41.768;26.198;2022-12-07T00:50:59;101129.50;;;7.19;100.00
9249;BME280;4660;41.768;26.198;2022-12-07T00:53:25;101123.97;;;6.97;100.00
9249;BME280;4660;41.768;26.198;2022-12-07T00:55:51;101117.47;;;6.88;100.00
9249;BME280;4660;41.768;26.198;2022-12-07T00:58:18;101108.16;;;6.94;100.00
9249;BME280;4660;41.768;26.198;2022-12-07T01:00:44;101120.44;;;7.09;100.00
9249;BME280;4660;41.768;26.198;2022-12-07T01:03:11;101115.72;;;7.00;100.00
9249;BME280;4660;41.768;26.198;2022-12-07T01:05:37;101106.41;;;6.93;100.00
9249;BME280;4660;41.768;26.198;2022-12-07T01:08:03;101118.75;;;6.82;100.00
9249;BME280;4660;41.768;26.198;2022-12-07T01:10:29;101114.56;;;6.78;100.00
9249;BME280;4660;41.768;26.198;2022-12-07T01:12:56;101100.25;;;6.79;100.00
9249;BME280;4660;41.768;26.198;2022-12-07T01:15:21;101108.16;;;6.81;100.00
9249;BME280;4660;41.768;26.198;2022-12-07T01:17:47;101107.06;;;6.83;100.00
9249;BME280;4660;41.768;26.198;2022-12-07T01:20:13;101106.03;;;6.86;100.00
9249;BME280;4660;41.768;26.198;2022-12-07T01:22:42;101097.97;;;6.99;100.00
9249;BME280;4660;41.768;26.198;2022-12-07T01:25:09;101111.84;;;7.29;100.00
9249;BME280;4660;41.768;26.198;2022-12-07T01:27:35;101097.97;;;7.48;100.00
9249;BME280;4660;41.768;26.198;2022-12-07T01:30:03;101098.13;;;7.34;100.00
9249;BME280;4660;41.768;26.198;2022-12-07T01:32:29;101079.09;;;7.26;100.00
9249;BME280;4660;41.768;26.198;2022-12-07T01:34:55;101107.69;;;7.49;100.00
9249;BME280;4660;41.768;26.198;2022-12-07T01:37:21;101093.59;;;7.71;100.00
9249;BME280;4660;41.768;26.198;2022-12-07T01:39:50;101096.91;;;7.51;100.00
9249;BME280;4660;41.768;26.198;2022-12-07T01:42:17;101094.28;;;7.62;100.00
9249;BME280;4660;41.768;26.198;2022-12-07T01:47:53;101093.59;;;7.71;100.00
9249;BME280;4660;41.768;26.198;2022-12-07T01:50:20;101083.69;;;7.84;100.00
9249;BME280;4660;41.768;26.198;2022-12-07T01:52:49;101086.59;;;7.81;100.00
9249;BME280;4660;41.768;26.198;2022-12-07T01:55:16;101087.44;;;7.82;100.00
9249;BME280;4660;41.768;26.198;2022-12-07T01:57:46;101073.22;;;7.81;100.00
9249;BME280;4660;41.768;26.198;2022-12-07T02:00:13;101083.34;;;7.89;100.00
9249;BME280;4660;41.768;26.198;2022-12-07T02:02:45;101084.63;;;7.72;100.00
9249;BME280;4660;41.768;26.198;2022-12-07T02:05:13;101074.47;;;7.64;100.00
9249;BME280;4660;41.768;26.198;2022-12-07T02:07:39;101077.53;;;7.47;100.00
9249;BME280;4660;41.768;26.198;2022-12-07T02:10:17;101071.88;;;7.39;100.00
9249;BME280;4660;41.768;26.198;2022-12-07T02:12:44;101069.94;;;7.41;100.00
9249;BME280;4660;41.768;26.198;2022-12-07T02:15:11;101065.44;;;7.41;100.00
9249;BME280;4660;41.768;26.198;2022-12-07T02:17:40;101069.72;;;7.44;100.00
9249;BME280;4660;41.768;26.198;2022-12-07T02:20:30;101074.13;;;7.45;100.00
9249;BME280;4660;41.768;26.198;2022-12-07T02:23:29;101066.97;;;7.33;100.00
9249;BME280;4660;41.768;26.198;2022-12-07T02:28:37;101070.91;;;7.64;100.00
9249;BME280;4660;41.768;26.198;2022-12-07T02:31:13;101058.91;;;7.69;100.00
9249;BME280;4660;41.768;26.198;2022-12-07T02:33:45;101051.25;;;7.76;100.00
9249;BME280;4660;41.768;26.198;2022-12-07T02:36:23;101055.56;;;7.79;100.00
9249;BME280;4660;41.768;26.198;2022-12-07T02:39:07;101052.50;;;7.83;100.00
9249;BME280;4660;41.768;26.198;2022-12-07T02:41:39;101053.34;;;8.08;100.00
9249;BME280;4660;41.768;26.198;2022-12-07T02:44:10;101050.53;;;8.09;100.00
9249;BME280;4660;41.768;26.198;2022-12-07T02:47:01;101047.50;;;8.14;100.00
9249;BME280;4660;41.768;26.198;2022-12-07T02:49:29;101045.66;;;8.14;100.00
9249;BME280;4660;41.768;26.198;2022-12-07T02:51:55;101052.38;;;8.09;100.00
9249;BME280;4660;41.768;26.198;2022-12-07T02:54:22;101046.44;;;7.81;100.00
9249;BME280;4660;41.768;26.198;2022-12-07T03:07:26;101040.78;;;7.73;100.00
9249;BME280;4660;41.768;26.198;2022-12-07T03:10:03;101052.78;;;7.91;100.00
9249;BME280;4660;41.768;26.198;2022-12-07T03:12:45;101044.47;;;7.83;100.00
9249;BME280;4660;41.768;26.198;2022-12-07T03:15:18;101040.53;;;7.76;100.00
9249;BME280;4660;41.768;26.198;2022-12-07T03:17:48;101042.06;;;7.91;100.00
9249;BME280;4660;41.768;26.198;2022-12-07T03:20:17;101042.84;;;8.05;100.00
9249;BME280;4660;41.768;26.198;2022-12-07T03:22:46;101039.06;;;7.96;100.00
9249;BME280;4660;41.768;26.198;2022-12-07T03:25:15;101047.78;;;7.87;100.00
9249;BME280;4660;41.768;26.198;2022-12-07T03:27:46;101043.50;;;7.84;100.00
9249;BME280;4660;41.768;26.198;2022-12-07T03:30:19;101043.75;;;7.81;100.00
9249;BME280;4660;41.768;26.198;2022-12-07T03:32:54;101041.34;;;7.89;100.00
9249;BME280;4660;41.768;26.198;2022-12-07T03:35:45;101048.91;;;7.95;100.00
9249;BME280;4660;41.768;26.198;2022-12-07T03:38:30;101045.00;;;7.99;100.00
9249;BME280;4660;41.768;26.198;2022-12-07T03:41:21;101042.16;;;7.79;100.00
9249;BME280;4660;41.768;26.198;2022-12-07T03:43:48;101041.47;;;7.64;100.00
9249;BME280;4660;41.768;26.198;2022-12-07T03:54:23;101036.50;;;7.47;100.00
9249;BME280;4660;41.768;26.198;2022-12-07T03:56:51;101038.28;;;7.59;100.00
9249;BME280;4660;41.768;26.198;2022-12-07T03:59:19;101029.63;;;7.79;100.00
9249;BME280;4660;41.768;26.198;2022-12-07T04:01:54;101033.09;;;8.04;100.00
9249;BME280;4660;41.768;26.198;2022-12-07T04:04:21;101036.75;;;8.03;100.00
9249;BME280;4660;41.768;26.198;2022-12-07T04:06:47;101031.03;;;8.07;100.00
9249;BME280;4660;41.768;26.198;2022-12-07T04:09:13;101029.72;;;8.13;100.00
9249;BME280;4660;41.768;26.198;2022-12-07T04:11:40;101034.84;;;8.16;100.00
9249;BME280;4660;41.768;26.198;2022-12-07T04:14:05;101033.03;;;8.16;100.00
9249;BME280;4660;41.768;26.198;2022-12-07T04:19:16;101030.47;;;8.26;100.00
9249;BME280;4660;41.768;26.198;2022-12-07T04:21:42;101034.03;;;7.91;100.00
9249;BME280;4660;41.768;26.198;2022-12-07T04:24:08;101036.50;;;7.70;100.00
9249;BME280;4660;41.768;26.198;2022-12-07T04:26:34;101034.53;;;7.96;100.00
9249;BME280;4660;41.768;26.198;2022-12-07T04:28:59;101032.84;;;7.95;100.00
9249;BME280;4660;41.768;26.198;2022-12-07T04:31:25;101016.22;;;7.79;100.00
9249;BME280;4660;41.768;26.198;2022-12-07T04:33:50;101025.78;;;7.94;100.00
9249;BME280;4660;41.768;26.198;2022-12-07T04:36:16;101038.19;;;7.95;100.00
9249;BME280;4660;41.768;26.198;2022-12-07T04:38:42;101032.31;;;7.79;100.00
9249;BME280;4660;41.768;26.198;2022-12-07T04:41:09;101034.34;;;7.76;100.00
9249;BME280;4660;41.768;26.198;2022-12-07T04:43:35;101032.47;;;7.65;100.00
9249;BME280;4660;41.768;26.198;2022-12-07T04:46:01;101035.56;;;7.71;100.00
9249;BME280;4660;41.768;26.198;2022-12-07T04:48:27;101039.13;;;7.83;100.00
9249;BME280;4660;41.768;26.198;2022-12-07T04:50:52;101041.84;;;7.94;100.00
9249;BME280;4660;41.768;26.198;2022-12-07T04:53:18;101037.75;;;7.78;100.00
9249;BME280;4660;41.768;26.198;2022-12-07T04:55:44;101036.16;;;8.10;100.00
9249;BME280;4660;41.768;26.198;2022-12-07T04:58:10;101044.59;;;8.28;100.00
9249;BME280;4660;41.768;26.198;2022-12-07T05:00:36;101023.50;;;8.12;100.00
9249;BME280;4660;41.768;26.198;2022-12-07T05:03:02;101039.06;;;8.07;100.00
9249;BME280;4660;41.768;26.198;2022-12-07T05:05:28;101046.25;;;8.42;100.00
9249;BME280;4660;41.768;26.198;2022-12-07T05:07:54;101040.69;;;8.10;100.00
9249;BME280;4660;41.768;26.198;2022-12-07T05:10:20;101040.63;;;7.98;100.00
9249;BME280;4660;41.768;26.198;2022-12-07T05:12:45;101025.84;;;8.17;100.00
9249;BME280;4660;41.768;26.198;2022-12-07T05:15:13;101041.16;;;8.04;100.00
9249;BME280;4660;41.768;26.198;2022-12-07T05:17:38;101026.34;;;8.22;100.00
9249;BME280;4660;41.768;26.198;2022-12-07T05:20:05;101029.78;;;8.35;100.00
9249;BME280;4660;41.768;26.198;2022-12-07T05:22:30;101044.19;;;8.57;100.00
9249;BME280;4660;41.768;26.198;2022-12-07T05:24:56;101022.53;;;8.60;100.00
9249;BME280;4660;41.768;26.198;2022-12-07T05:27:22;101018.13;;;8.70;100.00
9249;BME280;4660;41.768;26.198;2022-12-07T05:29:49;101041.53;;;8.68;100.00
9249;BME280;4660;41.768;26.198;2022-12-07T05:32:15;101038.97;;;8.55;100.00
9249;BME280;4660;41.768;26.198;2022-12-07T05:34:40;101035.63;;;8.29;100.00
9249;BME280;4660;41.768;26.198;2022-12-07T05:37:06;101024.44;;;8.35;100.00
9249;BME280;4660;41.768;26.198;2022-12-07T05:39:32;101028.84;;;8.47;100.00
9249;BME280;4660;41.768;26.198;2022-12-07T05:41:57;101035.19;;;8.46;100.00
9249;BME280;4660;41.768;26.198;2022-12-07T05:44:39;101029.56;;;8.38;100.00
9249;BME280;4660;41.768;26.198;2022-12-07T05:47:05;101028.13;;;8.21;100.00
9249;BME280;4660;41.768;26.198;2022-12-07T05:49:31;101028.78;;;8.25;100.00
9249;BME280;4660;41.768;26.198;2022-12-07T05:51:56;101035.22;;;8.58;100.00
9249;BME280;4660;41.768;26.198;2022-12-07T05:54:22;101039.34;;;8.73;100.00
9249;BME280;4660;41.768;26.198;2022-12-07T05:56:48;101039.22;;;8.86;100.00
9249;BME280;4660;41.768;26.198;2022-12-07T05:59:13;101049.19;;;9.06;100.00
9249;BME280;4660;41.768;26.198;2022-12-07T06:02:02;101033.59;;;8.77;100.00
9249;BME280;4660;41.768;26.198;2022-12-07T06:04:33;101034.00;;;8.73;100.00
9249;BME280;4660;41.768;26.198;2022-12-07T06:07:00;101055.22;;;8.87;100.00
9249;BME280;4660;41.768;26.198;2022-12-07T06:09:26;101053.38;;;8.88;100.00
9249;BME280;4660;41.768;26.198;2022-12-07T06:11:52;101049.59;;;8.79;100.00
9249;BME280;4660;41.768;26.198;2022-12-07T06:14:37;101037.91;;;8.80;100.00
9249;BME280;4660;41.768;26.198;2022-12-07T06:17:03;101043.25;;;9.02;100.00
9249;BME280;4660;41.768;26.198;2022-12-07T06:19:29;101044.69;;;9.06;100.00
9249;BME280;4660;41.768;26.198;2022-12-07T06:21:54;101049.69;;;9.22;100.00
9249;BME280;4660;41.768;26.198;2022-12-07T06:24:20;101031.25;;;9.18;100.00
9249;BME280;4660;41.768;26.198;2022-12-07T06:26:46;101034.56;;;9.10;100.00
9249;BME280;4660;41.768;26.198;2022-12-07T06:29:12;101043.94;;;9.27;100.00
9249;BME280;4660;41.768;26.198;2022-12-07T06:31:38;101031.75;;;9.23;100.00
9249;BME280;4660;41.768;26.198;2022-12-07T06:34:06;101049.31;;;9.27;100.00
9249;BME280;4660;41.768;26.198;2022-12-07T06:36:32;101055.38;;;9.40;100.00
9249;BME280;4660;41.768;26.198;2022-12-07T06:38:58;101059.63;;;9.43;100.00
9249;BME280;4660;41.768;26.198;2022-12-07T06:41:23;101059.41;;;9.46;100.00
9249;BME280;4660;41.768;26.198;2022-12-07T06:43:49;101033.19;;;9.27;100.00
9249;BME280;4660;41.768;26.198;2022-12-07T06:46:16;101047.81;;;9.45;100.00
9249;BME280;4660;41.768;26.198;2022-12-07T06:48:47;101060.00;;;9.49;100.00
9249;BME280;4660;41.768;26.198;2022-12-07T06:51:13;101059.53;;;9.44;100.00
9249;BME280;4660;41.768;26.198;2022-12-07T06:53:39;101057.00;;;9.31;100.00
9249;BME280;4660;41.768;26.198;2022-12-07T06:56:04;101047.09;;;9.21;100.00
9249;BME280;4660;41.768;26.198;2022-12-07T06:58:30;101062.13;;;9.12;100.00
9249;BME280;4660;41.768;26.198;2022-12-07T07:00:56;101063.72;;;9.26;100.00
9249;BME280;4660;41.768;26.198;2022-12-07T07:03:22;101048.25;;;8.96;100.00
9249;BME280;4660;41.768;26.198;2022-12-07T07:05:48;101051.28;;;9.02;100.00
9249;BME280;4660;41.768;26.198;2022-12-07T07:08:14;101054.47;;;9.07;100.00
9249;BME280;4660;41.768;26.198;2022-12-07T07:10:42;101050.31;;;9.15;100.00
9249;BME280;4660;41.768;26.198;2022-12-07T07:13:08;101049.16;;;9.28;100.00
9249;BME280;4660;41.768;26.198;2022-12-07T07:15:37;101053.69;;;9.39;100.00
9249;BME280;4660;41.768;26.198;2022-12-07T07:18:03;101053.69;;;9.39;100.00
9249;BME280;4660;41.768;26.198;2022-12-07T07:20:31;101062.22;;;9.44;100.00
9249;BME280;4660;41.768;26.198;2022-12-07T07:22:57;101059.13;;;9.49;100.00
9249;BME280;4660;41.768;26.198;2022-12-07T07:25:23;101032.69;;;9.33;100.00
9249;BME280;4660;41.768;26.198;2022-12-07T07:27:48;101046.59;;;9.38;100.00
9249;BME280;4660;41.768;26.198;2022-12-07T07:30:15;101055.38;;;9.51;100.00
9249;BME280;4660;41.768;26.198;2022-12-07T07:32:41;101019.63;;;9.40;100.00
9249;BME280;4660;41.768;26.198;2022-12-07T07:35:07;101052.28;;;9.56;100.00
9249;BME280;4660;41.768;26.198;2022-12-07T07:37:33;101039.47;;;9.59;100.00
9249;BME280;4660;41.768;26.198;2022-12-07T07:39:59;101046.53;;;9.60;100.00
9249;BME280;4660;41.768;26.198;2022-12-07T07:42:26;101038.13;;;9.65;100.00
9249;BME280;4660;41.768;26.198;2022-12-07T07:44:52;101045.31;;;9.64;100.00
9249;BME280;4660;41.768;26.198;2022-12-07T07:47:18;101033.59;;;9.65;100.00
9249;BME280;4660;41.768;26.198;2022-12-07T07:49:44;101051.41;;;9.67;100.00
9249;BME280;4660;41.768;26.198;2022-12-07T07:52:09;101022.75;;;9.56;100.00
9249;BME280;4660;41.768;26.198;2022-12-07T07:54:35;101036.50;;;9.74;100.00
9249;BME280;4660;41.768;26.198;2022-12-07T07:57:04;101047.94;;;10.08;100.00
9249;BME280;4660;41.768;26.198;2022-12-07T07:59:36;101069.94;;;10.34;100.00
9249;BME280;4660;41.768;26.198;2022-12-07T08:02:07;101048.75;;;10.40;100.00
9249;BME280;4660;41.768;26.198;2022-12-07T08:04:35;101063.00;;;10.52;100.00
9249;BME280;4660;41.768;26.198;2022-12-07T08:07:01;101058.28;;;10.44;100.00
9249;BME280;4660;41.768;26.198;2022-12-07T08:09:32;101048.63;;;10.42;100.00
9249;BME280;4660;41.768;26.198;2022-12-07T08:12:12;101056.16;;;10.48;100.00
9249;BME280;4660;41.768;26.198;2022-12-07T08:14:44;100922.13;;;9.60;100.00
9249;BME280;4660;41.768;26.198;2022-12-07T08:17:12;101032.09;;;10.26;100.00
9249;BME280;4660;41.768;26.198;2022-12-07T08:19:42;100952.88;;;9.88;100.00
9249;BME280;4660;41.768;26.198;2022-12-07T08:22:08;100994.50;;;10.14;100.00
9249;BME280;4660;41.768;26.198;2022-12-07T08:24:35;100933.53;;;9.73;100.00
9249;BME280;4660;41.768;26.198;2022-12-07T08:27:10;100977.31;;;9.85;100.00
9249;BME280;4660;41.768;26.198;2022-12-07T08:29:40;101050.63;;;10.08;100.00
9249;BME280;4660;41.768;26.198;2022-12-07T08:32:06;100986.31;;;9.63;100.00
9249;BME280;4660;41.768;26.198;2022-12-07T08:34:33;101037.06;;;10.09;100.00
9249;BME280;4660;41.768;26.198;2022-12-07T08:37:02;101061.41;;;10.50;100.00
9249;BME280;4660;41.768;26.198;2022-12-07T08:39:28;100990.09;;;10.13;100.00
9249;BME280;4660;41.768;26.198;2022-12-07T08:41:56;100947.31;;;10.01;100.00
9249;BME280;4660;41.768;26.198;2022-12-07T08:44:23;101004.84;;;10.61;100.00
9249;BME280;4660;41.768;26.198;2022-12-07T08:46:59;100951.34;;;10.37;100.00
9249;BME280;4660;41.768;26.198;2022-12-07T08:49:31;100962.31;;;10.55;100.00
9249;BME280;4660;41.768;26.198;2022-12-07T08:51:58;100980.94;;;10.67;100.00
9249;BME280;4660;41.768;26.198;2022-12-07T08:54:25;101042.72;;;10.79;100.00
9249;BME280;4660;41.768;26.198;2022-12-07T08:56:54;101007.72;;;10.79;100.00
9249;BME280;4660;41.768;26.198;2022-12-07T08:59:21;100924.06;;;10.20;100.00
9249;BME280;4660;41.768;26.198;2022-12-07T09:01:48;100919.88;;;10.07;100.00
9249;BME280;4660;41.768;26.198;2022-12-07T09:04:14;100950.72;;;10.54;100.00
9249;BME280;4660;41.768;26.198;2022-12-07T09:06:44;101014.13;;;11.18;100.00
9249;BME280;4660;41.768;26.198;2022-12-07T09:09:11;100947.19;;;10.94;100.00
9249;BME280;4660;41.768;26.198;2022-12-07T09:11:40;100997.94;;;11.08;100.00
9249;BME280;4660;41.768;26.198;2022-12-07T09:14:22;101015.81;;;11.28;100.00
9249;BME280;4660;41.768;26.198;2022-12-07T09:17:07;100950.03;;;11.02;100.00
9249;BME280;4660;41.768;26.198;2022-12-07T09:19:39;100971.44;;;11.13;100.00
9249;BME280;4660;41.768;26.198;2022-12-07T09:22:09;101013.16;;;11.48;100.00
9249;BME280;4660;41.768;26.198;2022-12-07T09:24:39;100918.66;;;10.72;100.00
9249;BME280;4660;41.768;26.198;2022-12-07T09:27:13;101020.41;;;11.57;100.00
9249;BME280;4660;41.768;26.198;2022-12-07T09:29:40;100942.09;;;11.20;100.00
9249;BME280;4660;41.768;26.198;2022-12-07T09:32:07;100899.44;;;10.96;100.00
9249;BME280;4660;41.768;26.198;2022-12-07T09:34:36;100998.59;;;11.50;100.00
9249;BME280;4660;41.768;26.198;2022-12-07T09:37:02;100925.50;;;11.05;100.00
9249;BME280;4660;41.768;26.198;2022-12-07T09:39:29;100946.38;;;11.22;100.00
9249;BME280;4660;41.768;26.198;2022-12-07T09:41:58;100889.91;;;10.82;100.00
9249;BME280;4660;41.768;26.198;2022-12-07T09:44:25;100942.94;;;11.20;100.00
9249;BME280;4660;41.768;26.198;2022-12-07T09:46:56;100869.31;;;10.62;100.00
9249;BME280;4660;41.768;26.198;2022-12-07T09:49:32;100903.22;;;10.84;100.00
9249;BME280;4660;41.768;26.198;2022-12-07T09:52:20;100976.44;;;11.37;100.00
9249;BME280;4660;41.768;26.198;2022-12-07T09:54:54;100924.50;;;11.06;100.00
9249;BME280;4660;41.768;26.198;2022-12-07T09:57:32;100901.41;;;11.13;100.00
9249;BME280;4660;41.768;26.198;2022-12-07T10:00:06;100865.97;;;10.79;100.00
9249;BME280;4660;41.768;26.198;2022-12-07T10:05:36;100940.44;;;11.38;100.00
9249;BME280;4660;41.768;26.198;2022-12-07T10:08:11;100939.16;;;11.33;100.00
9249;BME280;4660;41.768;26.198;2022-12-07T10:10:39;100940.44;;;11.48;100.00
9249;BME280;4660;41.768;26.198;2022-12-07T10:13:20;100945.25;;;11.73;100.00
9249;BME280;4660;41.768;26.198;2022-12-07T10:15:59;100957.56;;;12.05;100.00
9249;BME280;4660;41.768;26.198;2022-12-07T10:18:39;100949.03;;;12.19;100.00
9249;BME280;4660;41.768;26.198;2022-12-07T10:26:50;100828.41;;;11.55;100.00
9249;BME280;4660;41.768;26.198;2022-12-07T10:29:24;100946.78;;;12.15;100.00
9249;BME280;4660;41.768;26.198;2022-12-07T10:32:01;100922.97;;;12.00;100.00
9249;BME280;4660;41.768;26.198;2022-12-07T10:34:30;100885.81;;;11.84;100.00
9249;BME280;4660;41.768;26.198;2022-12-07T10:39:55;100870.84;;;12.00;100.00
9249;BME280;4660;41.768;26.198;2022-12-07T10:42:29;100802.56;;;11.72;100.00
9249;BME280;4660;41.768;26.198;2022-12-07T10:48:24;100831.19;;;11.82;100.00
9249;BME280;4660;41.768;26.198;2022-12-07T10:54:12;100860.06;;;12.00;100.00
9249;BME280;4660;41.768;26.198;2022-12-07T10:56:54;100926.06;;;12.43;100.00
9249;BME280;4660;41.768;26.198;2022-12-07T10:59:59;100878.19;;;12.17;100.00
9249;BME280;4660;41.768;26.198;2022-12-07T11:06:41;100916.69;;;12.47;100.00
9249;BME280;4660;41.768;26.198;2022-12-07T11:15:28;100821.97;;;11.75;100.00
9249;BME280;4660;41.768;26.198;2022-12-07T11:18:21;100790.63;;;11.74;100.00
9249;BME280;4660;41.768;26.198;2022-12-07T11:24:19;100811.81;;;12.06;100.00
9249;BME280;4660;41.768;26.198;2022-12-07T11:30:23;100885.97;;;12.30;100.00
9249;BME280;4660;41.768;26.198;2022-12-07T11:33:27;100799.13;;;11.89;100.00
9249;BME280;4660;41.768;26.198;2022-12-07T11:42:00;100777.50;;;11.99;100.00
9249;BME280;4660;41.768;26.198;2022-12-07T11:48:04;100787.69;;;12.05;100.00
9249;BME280;4660;41.768;26.198;2022-12-07T11:51:01;100761.97;;;11.83;100.00
9249;BME280;4660;41.768;26.198;2022-12-07T11:54:03;100776.22;;;12.03;100.00
9249;BME280;4660;41.768;26.198;2022-12-07T11:56:40;100801.16;;;12.15;100.00
9249;BME280;4660;41.768;26.198;2022-12-07T11:59:23;100802.09;;;12.23;100.00
9249;BME280;4660;41.768;26.198;2022-12-07T12:02:18;100755.56;;;12.11;100.00
9249;BME280;4660;41.768;26.198;2022-12-07T12:05:19;100791.97;;;12.53;100.00
9249;BME280;4660;41.768;26.198;2022-12-07T12:11:09;100858.63;;;12.70;100.00
9249;BME280;4660;41.768;26.198;2022-12-07T12:20:26;100836.41;;;12.76;100.00
9249;BME280;4660;41.768;26.198;2022-12-07T12:23:24;100827.72;;;13.00;100.00
9249;BME280;4660;41.768;26.198;2022-12-07T12:26:35;100733.91;;;12.66;100.00
9249;BME280;4660;41.768;26.198;2022-12-07T12:29:26;100745.56;;;12.67;100.00
9249;BME280;4660;41.768;26.198;2022-12-07T12:32:21;100823.47;;;13.15;100.00
9249;BME280;4660;41.768;26.198;2022-12-07T12:35:34;100819.06;;;12.97;100.00
9249;BME280;4660;41.768;26.198;2022-12-07T12:38:32;100821.38;;;12.91;100.00
9249;BME280;4660;41.768;26.198;2022-12-07T12:41:03;100703.47;;;11.93;100.00
9249;BME280;4660;41.768;26.198;2022-12-07T12:43:48;100825.16;;;12.99;100.00
9249;BME280;4660;41.768;26.198;2022-12-07T12:46:37;100765.84;;;12.89;100.00
9249;BME280;4660;41.768;26.198;2022-12-07T12:49:38;100807.81;;;13.37;100.00
9249;BME280;4660;41.768;26.198;2022-12-07T12:55:18;100782.56;;;12.92;100.00
9249;BME280;4660;41.768;26.198;2022-12-07T13:00:46;100809.91;;;13.25;100.00
9249;BME280;4660;41.768;26.198;2022-12-07T13:03:35;100822.41;;;13.26;100.00
9249;BME280;4660;41.768;26.198;2022-12-07T13:06:38;100763.84;;;12.73;100.00
9249;BME280;4660;41.768;26.198;2022-12-07T13:09:31;100720.84;;;12.26;100.00
9249;BME280;4660;41.768;26.198;2022-12-07T13:15:01;100789.16;;;12.72;100.00
9249;BME280;4660;41.768;26.198;2022-12-07T13:20:40;100732.69;;;12.43;100.00
9249;BME280;4660;41.768;26.198;2022-12-07T13:23:18;100763.81;;;12.91;100.00
9249;BME280;4660;41.768;26.198;2022-12-07T13:29:18;100794.88;;;13.48;100.00
9249;BME280;4660;41.768;26.198;2022-12-07T13:32:32;100796.31;;;13.17;100.00
9249;BME280;4660;41.768;26.198;2022-12-07T13:35:02;100763.31;;;12.87;100.00
9249;BME280;4660;41.768;26.198;2022-12-07T13:38:28;100785.97;;;12.94;100.00
9249;BME280;4660;41.768;26.198;2022-12-07T13:41:21;100779.78;;;12.84;100.00
9249;BME280;4660;41.768;26.198;2022-12-07T13:44:12;100717.78;;;12.57;100.00
9249;BME280;4660;41.768;26.198;2022-12-07T13:49:24;100670.59;;;12.61;100.00
9249;BME280;4660;41.768;26.198;2022-12-07T13:51:51;100733.59;;;12.87;100.00
9249;BME280;4660;41.768;26.198;2022-12-07T13:54:18;100661.66;;;12.43;100.00
9249;BME280;4660;41.768;26.198;2022-12-07T13:56:48;100657.81;;;12.27;100.00
9249;BME280;4660;41.768;26.198;2022-12-07T13:59:21;100701.44;;;12.40;100.00
9249;BME280;4660;41.768;26.198;2022-12-07T14:01:50;100659.66;;;12.09;100.00
9249;BME280;4660;41.768;26.198;2022-12-07T14:04:27;100775.53;;;13.00;100.00
9249;BME280;4660;41.768;26.198;2022-12-07T14:06:56;100709.06;;;12.63;100.00
9249;BME280;4660;41.768;26.198;2022-12-07T14:09:28;100736.34;;;12.78;100.00
9249;BME280;4660;41.768;26.198;2022-12-07T14:11:56;100718.19;;;12.62;100.00
9249;BME280;4660;41.768;26.198;2022-12-07T14:14:29;100724.50;;;12.71;100.00
9249;BME280;4660;41.768;26.198;2022-12-07T14:17:18;100727.59;;;12.58;100.00
9249;BME280;4660;41.768;26.198;2022-12-07T14:20:00;100770.41;;;12.88;100.00
9249;BME280;4660;41.768;26.198;2022-12-07T14:22:37;100701.28;;;12.24;100.00
9249;BME280;4660;41.768;26.198;2022-12-07T14:25:24;100750.31;;;12.55;100.00
9249;BME280;4660;41.768;26.198;2022-12-07T14:28:00;100689.59;;;12.06;100.00
9249;BME280;4660;41.768;26.198;2022-12-07T14:30:29;100693.16;;;12.06;100.00
9249;BME280;4660;41.768;26.198;2022-12-07T14:33:00;100717.75;;;12.21;100.00
9249;BME280;4660;41.768;26.198;2022-12-07T14:35:27;100720.34;;;12.13;100.00
9249;BME280;4660;41.768;26.198;2022-12-07T14:37:55;100787.34;;;12.63;100.00
9249;BME280;4660;41.768;26.198;2022-12-07T14:40:27;100668.31;;;11.85;100.00
9249;BME280;4660;41.768;26.198;2022-12-07T14:43:00;100719.06;;;12.17;100.00
9249;BME280;4660;41.768;26.198;2022-12-07T14:45:36;100724.88;;;12.22;100.00
9249;BME280;4660;41.768;26.198;2022-12-07T14:48:47;100733.81;;;11.95;100.00
9249;BME280;4660;41.768;26.198;2022-12-07T14:51:22;100722.63;;;11.90;100.00
9249;BME280;4660;41.768;26.198;2022-12-07T14:54:38;100776.22;;;12.30;100.00
9249;BME280;4660;41.768;26.198;2022-12-07T14:57:09;100784.59;;;12.27;100.00
9249;BME280;4660;41.768;26.198;2022-12-07T14:59:52;100730.56;;;11.92;100.00
9249;BME280;4660;41.768;26.198;2022-12-07T15:02:27;100734.72;;;11.76;100.00